Time;durP1;ratioP1;P1;durP2;ratioP2;P2;SDS_P1;SDS_P2;PMS_P1;PMS_P2;Temp;Humidity;BMP_temperature;BMP_pressure;BME280_temperature;BME280_humidity;BME280_pressure;Samples;Min_cycle;Max_cycle;Signal;HPM_P1;HPM_P2
2022/11/09 05:31:05;;;;;;;98.30;43.25;;;;;;;1.01;92.60;95099.03;1784422;78;25644;-85
2022/11/09 05:33:32;;;;;;;87.17;41.18;;;;;;;1.02;92.46;95104.64;1750639;81;20969;-88
2022/11/09 05:35:59;;;;;;;74.37;36.88;;;;;;;1.06;92.34;95102.73;1746939;80;21324;-81
2022/11/09 05:38:25;;;;;;;89.75;37.55;;;;;;;1.11;92.27;95102.95;1753994;81;20992;-86
2022/11/09 05:40:53;;;;;;;72.92;37.50;;;;;;;1.14;92.12;95119.21;1753919;80;20993;-84
2022/11/09 05:43:20;;;;;;;85.17;37.05;;;;;;;1.12;91.97;95111.28;1761350;80;21154;-83
2022/11/09 05:45:48;;;;;;;87.53;38.08;;;;;;;1.12;92.05;95116.11;1734279;81;21058;-88
2022/11/09 05:48:16;;;;;;;94.72;38.80;;;;;;;1.14;92.06;95108.97;1727236;81;21140;-86
2022/11/09 05:50:43;;;;;;;76.65;35.60;;;;;;;1.17;92.13;95115.74;1721907;81;21179;-85
2022/11/09 05:53:24;;;;;;;63.20;30.97;;;;;;;1.23;92.24;95115.61;1717038;82;21100;-86
2022/11/09 05:55:51;;;;;;;67.22;30.35;;;;;;;1.26;92.36;95110.78;1693983;82;21182;-85
2022/11/09 05:58:18;;;;;;;68.75;32.98;;;;;;;1.31;92.35;95115.07;1730041;81;21477;-87
2022/11/09 06:00:45;;;;;;;82.80;37.28;;;;;;;1.32;92.15;95108.48;1716653;82;21825;-86
2022/11/09 06:03:12;;;;;;;75.72;39.60;;;;;;;1.31;92.31;95103.64;1718068;81;21093;-87
2022/11/09 06:05:40;;;;;;;90.57;42.10;;;;;;;1.36;92.58;95110.05;1716167;81;21612;-87
2022/11/09 06:08:12;;;;;;;74.20;36.88;;;;;;;1.41;92.52;95113.77;1720217;82;21001;-86
2022/11/09 06:10:41;;;;;;;71.62;34.95;;;;;;;1.45;92.44;95110.48;1688855;83;21145;-86
2022/11/09 06:13:11;;;;;;;57.30;34.85;;;;;;;1.46;92.34;95125.59;1669435;84;22115;-85
2022/11/09 06:15:39;;;;;;;63.80;32.60;;;;;;;1.51;92.27;95113.62;1693658;83;21149;-87
2022/11/09 06:18:13;;;;;;;77.80;40.55;;;;;;;1.53;92.25;95113.42;1683244;81;21055;-86
2022/11/09 06:20:42;;;;;;;69.15;36.20;;;;;;;1.55;92.28;95116.55;1694245;84;21099;-86
2022/11/09 06:23:11;;;;;;;59.33;31.42;;;;;;;1.59;92.21;95121.41;1649941;84;21099;-88
2022/11/09 06:25:41;;;;;;;52.60;31.87;;;;;;;1.65;92.30;95117.16;1703604;81;21063;-87
2022/11/09 06:28:27;;;;;;;45.78;27.13;;;;;;;1.74;92.36;95124.38;1645288;84;21058;-88
2022/11/09 06:31:04;;;;;;;43.38;25.95;;;;;;;1.85;92.32;95123.81;1634324;85;21102;-88
2022/11/09 06:33:33;;;;;;;42.65;27.15;;;;;;;1.91;92.11;95119.00;1618047;87;21017;-89
2022/11/09 06:36:13;;;;;;;74.17;33.50;;;;;;;1.99;92.02;95113.02;1606222;85;22496;31
2022/11/09 06:38:55;;;;;;;71.97;34.85;;;;;;;2.09;92.18;95114.41;1575110;88;21100;-88
2022/11/09 06:41:33;;;;;;;56.55;33.70;;;;;;;2.27;92.02;95115.78;1477217;95;21117;-88
2022/11/09 06:44:07;;;;;;;67.30;37.38;;;;;;;2.44;92.18;95118.55;1431503;99;21121;-88
2022/11/09 06:46:51;;;;;;;63.78;37.33;;;;;;;2.60;91.89;95110.02;1422902;98;21177;-89
2022/11/09 06:49:39;;;;;;;56.98;30.12;;;;;;;2.74;91.87;95108.67;1431330;97;21150;-85
2022/11/09 06:52:40;;;;;;;87.53;48.98;;;;;;;2.91;91.68;95113.32;1369652;100;21180;-89
2022/11/09 06:55:30;;;;;;;112.22;52.27;;;;;;;3.07;91.28;95106.30;1277719;109;21173;-88
2022/11/09 07:01:29;;;;;;;107.83;61.10;;;;;;;3.48;90.71;95103.33;1178135;121;21299;-87
2022/11/09 07:05:06;;;;;;;86.90;50.00;;;;;;;3.63;89.78;95104.81;1161529;122;21428;-88
2022/11/09 07:08:35;;;;;;;123.60;67.80;;;;;;;3.72;88.98;95107.30;1158434;119;21956;-89
2022/11/09 07:11:18;;;;;;;160.07;89.25;;;;;;;3.78;88.46;95096.79;1170128;120;21323;-87
2022/11/09 07:13:47;;;;;;;;;;;;;;;3.83;88.23;95097.77;1178304;120;21258;-86
2022/11/09 07:20:04;;;;;;;82.67;50.30;;;;;;;3.99;88.01;95093.40;1212908;118;21164;-92
2022/11/09 07:22:38;;;;;;;67.10;42.85;;;;;;;4.14;87.99;95092.16;1194401;118;21921;-88
2022/11/09 07:25:34;;;;;;;76.77;46.98;;;;;;;4.24;87.79;95084.50;1175127;121;21261;-89
2022/11/09 07:28:07;;;;;;;88.33;51.40;;;;;;;4.37;87.71;95086.16;1204814;117;21374;-87
2022/11/09 07:30:40;;;;;;;76.17;49.23;;;;;;;4.46;87.74;95079.09;1224151;114;21305;-88
2022/11/09 07:33:17;;;;;;;69.97;46.98;;;;;;;4.64;87.75;95085.19;1262201;110;26840;-87
2022/11/09 07:35:44;;;;;;;73.02;47.03;;;;;;;4.81;87.39;95081.55;1299936;108;21887;-91
2022/11/09 07:38:15;;;;;;;72.05;41.53;;;;;;;4.95;87.13;95077.35;1304541;104;21254;-89
2022/11/09 07:40:56;;;;;;;61.95;35.03;;;;;;;5.09;86.79;95073.14;1350546;104;21173;-89
2022/11/09 07:43:35;;;;;;;45.10;27.32;;;;;;;5.27;86.66;95079.20;1345001;103;21128;-89
2022/11/09 07:46:10;;;;;;;46.30;29.00;;;;;;;5.56;86.27;95074.41;1357507;101;21626;-89
2022/11/09 07:49:00;;;;;;;49.65;29.60;;;;;;;5.75;85.41;95075.77;1370889;103;22161;-88
2022/11/09 07:54:19;;;;;;;70.42;35.28;;;;;;;6.03;84.67;95065.87;1336174;105;21201;-82
2022/11/09 07:57:10;;;;;;;70.83;36.15;;;;;;;6.18;84.42;95062.53;1362205;103;21176;-89
2022/11/09 07:59:52;;;;;;;51.88;30.80;;;;;;;6.31;84.04;95051.84;1344792;104;21153;-86
2022/11/09 08:02:25;;;;;;;85.90;44.70;;;;;;;6.49;83.56;95055.09;1380415;102;21338;-90
2022/11/09 08:04:55;;;;;;;45.75;26.55;;;;;;;6.64;83.32;95054.45;1348698;106;21166;-88
2022/11/09 08:07:24;;;;;;;37.98;22.45;;;;;;;6.82;82.72;95049.47;1265902;112;21216;-88
2022/11/09 08:09:59;;;;;;;48.33;25.55;;;;;;;7.00;82.23;95045.06;1265382;112;21096;-93
2022/11/09 08:12:30;;;;;;;35.98;23.90;;;;;;;7.11;81.66;95047.79;1260786;113;21775;-89
2022/11/09 08:15:12;;;;;;;25.80;18.52;;;;;;;7.28;81.31;95046.70;1265305;112;21241;-88
2022/11/09 08:17:42;;;;;;;22.35;13.85;;;;;;;7.41;80.58;95044.33;1243999;112;21214;-89
2022/11/09 08:20:10;;;;;;;19.77;11.88;;;;;;;7.60;80.31;95039.47;1254765;111;22024;-91
2022/11/09 08:22:43;;;;;;;12.82;10.18;;;;;;;7.78;79.53;95033.05;1308485;104;21163;-87
2022/11/09 08:25:15;;;;;;;;;;;;;;;7.91;79.05;95034.55;1364583;103;21142;-89
2022/11/09 08:27:42;;;;;;;11.48;10.08;;;;;;;7.99;78.85;95034.56;1344090;104;21402;-93
2022/11/09 08:30:14;;;;;;;14.05;11.03;;;;;;;8.11;78.78;95029.81;1335435;105;21143;-89
2022/11/09 08:32:47;;;;;;;18.45;12.28;;;;;;;8.37;78.62;95029.64;1328084;107;21688;-89
2022/11/09 08:35:19;;;;;;;18.90;14.25;;;;;;;8.67;77.58;95035.42;1334159;106;21169;-90
2022/11/09 08:37:51;;;;;;;20.60;13.65;;;;;;;8.89;76.57;95023.52;1358124;104;21571;-85
2022/11/09 08:40:27;;;;;;;30.37;13.10;;;;;;;9.08;75.77;95024.78;1366585;103;21241;-89
2022/11/09 08:46:03;;;;;;;20.62;16.35;;;;;;;9.65;74.23;95024.07;1413363;99;21187;-92
2022/11/09 08:48:41;;;;;;;25.08;13.78;;;;;;;9.90;73.09;95025.52;1452463;97;21160;-90
2022/11/09 08:52:01;;;;;;;;;;;;;;;;;;;;;
2022/11/09 08:54:50;;;;;;;24.40;13.83;;;;;;;10.56;71.43;95013.92;1473440;97;21599;-90
2022/11/09 08:57:29;;;;;;;23.75;13.28;;;;;;;11.27;69.31;95008.45;1471098;96;21034;-89
2022/11/09 09:00:02;;;;;;;23.77;15.23;;;;;;;11.77;68.89;95007.52;1463354;98;21092;-85
2022/11/09 09:02:44;;;;;;;28.40;14.30;;;;;;;12.24;67.49;95003.40;1382027;102;21078;-87
2022/11/09 09:05:22;;;;;;;27.80;14.23;;;;;;;12.56;64.98;95000.95;1367741;105;21086;-88
2022/11/09 09:07:51;;;;;;;14.05;10.30;;;;;;;12.74;63.69;95004.41;1380933;101;21981;-91
2022/11/09 09:10:28;;;;;;;32.30;13.22;;;;;;;12.97;62.31;94997.78;1334466;106;21139;-88
2022/11/09 09:13:03;;;;;;;17.92;9.08;;;;;;;13.09;61.44;94994.11;1335071;105;21140;-86
2022/11/09 09:16:01;;;;;;;;;;;;;;;;;;;;;
2022/11/09 09:18:34;;;;;;;10.55;6.70;;;;;;;13.32;60.71;94992.18;1279360;110;21105;-87
2022/11/09 09:21:24;;;;;;;21.60;9.25;;;;;;;13.62;59.84;94984.98;1276147;112;21179;-88
2022/11/09 09:24:01;;;;;;;9.23;7.35;;;;;;;14.02;59.07;94974.52;1248250;115;21639;-89
2022/11/09 09:26:42;;;;;;;15.63;8.35;;;;;;;14.39;57.72;94978.13;1261212;112;21166;-88
2022/11/09 09:29:16;;;;;;;19.70;10.85;;;;;;;14.72;56.91;94959.56;1198030;118;21741;-89
2022/11/09 09:31:58;;;;;;;17.95;11.75;;;;;;;14.81;56.03;94960.28;1180054;120;21231;-87
2022/11/09 09:34:34;;;;;;;18.73;10.35;;;;;;;14.71;56.06;94958.81;1191457;117;21596;-91
2022/11/09 09:37:15;;;;;;;21.87;10.08;;;;;;;14.80;55.76;94955.98;1234793;114;21202;-88
2022/11/09 09:39:51;;;;;;;20.70;10.70;;;;;;;14.99;55.32;94962.97;1255661;109;21146;-87
2022/11/09 09:42:26;;;;;;;12.23;8.20;;;;;;;15.29;55.09;94950.81;1296222;106;21308;-86
2022/11/09 09:48:38;;;;;;;19.30;10.15;;;;;;;15.85;53.37;94946.52;1393949;99;21144;-89
2022/11/09 09:51:23;;;;;;;16.50;11.00;;;;;;;15.99;52.75;94943.61;1415114;97;21412;-86
2022/11/09 09:54:00;;;;;;;7.55;5.45;;;;;;;16.15;52.18;94938.38;1393029;101;21146;-87
2022/11/09 09:56:43;;;;;;;19.70;10.40;;;;;;;16.37;51.23;94941.56;1423792;98;21161;-84
2022/11/09 09:59:46;;;;;;;18.90;11.00;;;;;;;16.50;50.98;94939.23;1404897;98;21208;-86
2022/11/09 10:02:49;;;;;;;15.13;10.05;;;;;;;16.53;50.95;94934.13;1424272;98;21245;-88
2022/11/09 10:05:38;;;;;;;15.35;9.38;;;;;;;16.51;50.97;94935.99;1377063;102;21146;-88
2022/11/09 10:08:44;;;;;;;10.65;6.67;;;;;;;16.71;50.89;94926.97;1389824;100;21080;-87
2022/11/09 10:15:09;;;;;;;12.40;8.45;;;;;;;17.25;50.00;94924.84;1321273;107;21189;-88
2022/11/09 10:18:34;;;;;;;;;;;;;;;;;;;;;
2022/11/09 10:41:54;;;;;;;11.97;8.45;;;;;;;19.00;46.17;94891.05;1225309;117;21305;-86
2022/11/09 10:44:46;;;;;;;13.30;7.33;;;;;;;20.39;42.20;94879.27;1155965;121;21288;-89
2022/11/09 10:51:45;;;;;;;13.50;6.42;;;;;;;20.97;41.78;94871.25;1143881;122;21289;-86
2022/11/09 10:54:53;;;;;;;9.33;6.10;;;;;;;21.27;41.06;94875.02;1129791;125;21247;-87
2022/11/09 10:57:59;;;;;;;6.97;5.55;;;;;;;21.81;39.54;94866.30;1149281;120;21753;-87
2022/11/09 11:01:19;;;;;;;6.90;4.25;;;;;;;22.27;38.82;94862.18;1154129;121;21396;-89
2022/11/09 11:04:23;;;;;;;12.50;5.42;;;;;;;22.66;37.36;94866.13;1182103;116;21195;-88
2022/11/09 11:07:18;;;;;;;8.55;5.40;;;;;;;22.79;37.00;94862.82;1188559;116;21165;-87
2022/11/09 11:16:50;;;;;;;21.75;7.78;;;;;;;22.52;37.57;94844.20;1244406;112;21154;-85
2022/11/09 11:27:03;;;;;;;13.68;7.45;;;;;;;24.39;35.98;94835.74;1365833;103;21138;-87
2022/11/09 11:30:12;;;;;;;10.28;5.53;;;;;;;25.38;34.44;94837.53;1394351;103;21089;-86
2022/11/09 11:33:32;;;;;;;8.13;4.47;;;;;;;26.14;33.53;94835.94;1397932;100;21086;-85
2022/11/09 11:36:43;;;;;;;10.70;5.90;;;;;;;26.69;32.98;94830.44;1394760;102;21162;-87
2022/11/09 11:40:04;;;;;;;11.25;5.17;;;;;;;27.02;32.83;94829.61;1410753;99;21098;-87
2022/11/09 11:43:22;;;;;;;11.38;5.33;;;;;;;27.43;31.89;94824.58;1389471;100;21152;-87
2022/11/09 11:46:21;;;;;;;10.45;5.28;;;;;;;27.84;31.11;94830.89;1438845;98;21524;-90
2022/11/09 12:05:01;;;;;;;9.75;4.50;;;;;;;28.76;28.98;94821.48;1455178;96;21033;-92
2022/11/09 12:08:53;;;;;;;;;;;;;;;;;;;;;
2022/11/09 12:12:11;;;;;;;10.72;5.25;;;;;;;28.48;29.35;94813.13;1464870;96;21175;-92
2022/11/09 12:15:39;;;;;;;12.60;5.97;;;;;;;28.21;29.26;94810.48;1475882;96;21090;-92
2022/11/09 12:26:08;;;;;;;;;;;;;;;;;;;;;
2022/11/09 12:54:44;;;;;;;15.70;8.13;;;;;;;28.72;28.65;94789.92;1308058;105;21114;-86
2022/11/09 12:57:32;;;;;;;17.37;7.55;;;;;;;29.14;28.01;94790.44;1344670;105;21166;-87
2022/11/09 13:00:43;;;;;;;7.00;5.03;;;;;;;28.96;28.01;94783.08;1337348;105;21118;-89
2022/11/09 13:03:32;;;;;;;10.98;6.35;;;;;;;28.76;28.11;94788.91;1319510;106;21115;-86
2022/11/09 13:06:31;;;;;;;8.93;5.42;;;;;;;28.39;28.42;94783.95;1336367;103;21317;-88
2022/11/09 13:09:23;;;;;;;15.15;8.55;;;;;;;28.27;28.80;94782.75;1428142;98;21086;-88
2022/11/09 13:12:29;;;;;;;15.45;7.53;;;;;;;28.09;28.67;94783.19;1480405;96;21046;-86
2022/11/09 13:15:26;;;;;;;13.18;6.08;;;;;;;27.94;28.88;94786.59;1436150;98;21580;-86
2022/11/09 13:18:40;;;;;;;8.15;5.03;;;;;;;27.84;29.09;94798.36;1406652;101;21264;-85
2022/11/09 13:25:08;;;;;;;6.60;3.50;;;;;;;27.49;29.03;94793.44;1376945;103;21208;-85
2022/11/09 13:28:17;;;;;;;24.40;6.33;;;;;;;27.26;29.73;94791.10;1432279;100;21588;-90
2022/11/09 13:31:14;;;;;;;15.30;5.78;;;;;;;26.77;30.05;94795.98;1412580;99;21073;-85
2022/11/09 13:34:40;;;;;;;17.80;5.85;;;;;;;26.25;31.31;94794.80;1395933;99;21611;-88
2022/11/09 13:37:46;;;;;;;20.02;7.00;;;;;;;25.79;31.98;94795.44;1346039;105;21258;-84
2022/11/09 13:40:50;;;;;;;10.03;5.20;;;;;;;25.25;33.15;94795.27;1359467;103;21198;-88
2022/11/09 13:43:41;;;;;;;20.57;8.45;;;;;;;24.92;33.30;94795.89;1322471;105;21165;-85
2022/11/09 13:46:38;;;;;;;11.48;6.78;;;;;;;24.78;33.83;94793.68;1308908;108;21181;-87
2022/11/09 13:49:45;;;;;;;26.23;8.58;;;;;;;24.65;33.86;94795.08;1286790;106;21120;-88
2022/11/09 13:52:57;;;;;;;15.30;8.53;;;;;;;24.45;34.24;94794.23;1282766;109;21251;-87
2022/11/09 13:55:52;;;;;;;76.67;49.58;;;;;;;24.23;34.61;94793.83;1286796;105;21150;-90
2022/11/09 13:58:43;;;;;;;61.83;40.25;;;;;;;23.62;34.65;94802.98;1262539;112;21270;-79
2022/11/09 14:01:37;;;;;;;78.02;47.60;;;;;;;23.17;35.73;94809.03;1269133;111;21131;-87
2022/11/09 14:04:37;;;;;;;61.98;37.15;;;;;;;22.76;36.55;94807.77;1250710;113;21302;-86
2022/11/09 14:07:26;;;;;;;62.10;33.67;;;;;;;22.36;36.99;94820.45;1242292;113;21265;-91
2022/11/09 14:10:33;;;;;;;55.45;32.63;;;;;;;21.34;38.16;94816.47;1238197;108;21184;-86
2022/11/09 14:13:24;;;;;;;63.65;31.97;;;;;;;20.25;39.81;94818.17;1313391;106;21223;-84
2022/11/09 14:16:53;;;;;;;47.23;29.70;;;;;;;19.18;41.53;94816.11;1298192;108;21572;-84
2022/11/09 14:20:02;;;;;;;45.03;25.52;;;;;;;18.31;43.06;94821.26;1293832;110;21258;-84
2022/11/09 14:22:51;;;;;;;41.50;23.83;;;;;;;17.40;45.04;94814.30;1254084;113;21354;-85
2022/11/09 14:25:50;;;;;;;40.52;21.85;;;;;;;16.71;46.45;94820.75;1266777;111;21153;-86
2022/11/09 14:28:46;;;;;;;45.12;21.87;;;;;;;16.17;47.56;94820.69;1248056;112;21870;-85
2022/11/09 14:31:44;;;;;;;51.95;23.55;;;;;;;15.61;48.97;94821.00;1263155;110;21189;-88
2022/11/09 14:34:41;;;;;;;59.30;33.15;;;;;;;15.12;50.27;94820.80;1273217;111;21216;-84
2022/11/09 14:37:35;;;;;;;124.90;62.62;;;;;;;14.66;51.50;94820.21;1279840;110;21186;-86
2022/11/09 14:40:31;;;;;;;132.32;59.08;;;;;;;14.14;52.62;94823.53;1209780;114;21321;-84
2022/11/09 14:43:41;;;;;;;207.80;98.30;;;;;;;13.72;53.84;94835.22;1195615;117;21768;-84
2022/11/09 14:46:30;;;;;;;174.93;87.70;;;;;;;13.36;55.03;94831.73;1194663;118;21302;-83
2022/11/09 14:49:15;;;;;;;253.55;119.65;;;;;;;12.97;56.17;94838.20;1183661;119;21248;-87
2022/11/09 14:52:00;;;;;;;212.50;100.05;;;;;;;12.62;57.28;94841.83;1179268;119;21401;-85
2022/11/09 14:54:46;;;;;;;200.35;100.90;;;;;;;12.34;58.24;94844.20;1195731;118;21318;-89
2022/11/09 14:57:32;;;;;;;176.75;83.12;;;;;;;12.06;59.20;94836.45;1208598;115;21182;-83
2022/11/09 15:00:32;;;;;;;112.08;51.23;;;;;;;11.81;60.04;94846.91;1238131;110;21499;-88
2022/11/09 15:03:26;;;;;;;67.17;32.73;;;;;;;11.58;61.01;94840.52;1285477;109;21514;-89
2022/11/09 15:06:16;;;;;;;55.52;28.02;;;;;;;11.31;62.36;94845.22;1295596;108;21246;-86
2022/11/09 15:09:07;;;;;;;61.83;37.33;;;;;;;11.04;63.32;94853.89;1344651;105;21094;-85
2022/11/09 15:11:54;;;;;;;65.22;35.40;;;;;;;10.83;64.15;94851.88;1330202;100;21143;-84
2022/11/09 15:14:41;;;;;;;72.75;38.75;;;;;;;10.58;64.91;94849.81;1452008;98;21240;-85
2022/11/09 15:17:36;;;;;;;85.32;46.92;;;;;;;10.39;65.85;94844.72;1459675;94;21037;-84
2022/11/09 15:20:43;;;;;;;94.22;48.45;;;;;;;10.16;67.03;94847.84;1574555;87;20972;-85
2022/11/09 15:26:49;;;;;;;128.68;62.80;;;;;;;9.84;69.28;94866.53;1642485;86;21021;-85
2022/11/09 15:29:48;;;;;;;112.55;51.90;;;;;;;9.75;70.06;94869.14;1645500;85;21031;-91
2022/11/09 15:32:42;;;;;;;121.55;64.25;;;;;;;9.60;70.62;94869.42;1588848;88;20980;-90
2022/11/09 15:35:31;;;;;;;117.25;60.20;;;;;;;9.41;71.33;94874.50;1563934;90;21102;-87
2022/11/09 15:38:37;;;;;;;121.60;59.27;;;;;;;9.28;71.78;94880.55;1568034;90;21089;-86
2022/11/09 15:41:38;;;;;;;105.40;51.50;;;;;;;9.19;72.24;94884.52;1626361;87;21034;-86
2022/11/09 15:44:24;;;;;;;109.48;55.12;;;;;;;9.09;72.57;94880.11;1574800;90;21126;-86
2022/11/09 15:47:33;;;;;;;120.87;57.20;;;;;;;9.00;72.93;94886.81;1573814;90;21076;-87
2022/11/09 15:50:25;;;;;;;138.75;61.53;;;;;;;8.91;73.01;94883.32;1553314;91;21149;-87
2022/11/09 15:53:12;;;;;;;125.38;59.45;;;;;;;8.85;73.34;94889.00;1559250;90;21076;-81
2022/11/09 15:55:58;;;;;;;146.98;67.42;;;;;;;8.78;73.78;94880.36;1560293;90;21054;-87
2022/11/09 15:58:45;;;;;;;161.50;80.07;;;;;;;8.71;74.19;94883.30;1564784;87;21052;-86
2022/11/09 16:01:32;;;;;;;141.82;76.05;;;;;;;8.61;74.32;94891.80;1561310;90;21215;-86
2022/11/09 16:04:17;;;;;;;154.32;73.97;;;;;;;8.44;74.77;94895.76;1540219;90;21160;-86
2022/11/09 16:07:03;;;;;;;147.68;66.80;;;;;;;8.28;75.02;94897.13;1473729;95;21094;-88
2022/11/09 16:09:48;;;;;;;132.87;62.27;;;;;;;8.09;75.57;94900.08;1463472;96;21057;-86
2022/11/09 16:12:33;;;;;;;133.12;62.33;;;;;;;7.97;76.06;94898.03;1443146;97;21589;-89
2022/11/09 16:15:21;;;;;;;177.22;87.75;;;;;;;7.85;76.24;94898.69;1467360;94;21101;-87
2022/11/09 16:18:06;;;;;;;174.87;91.40;;;;;;;7.82;77.02;94895.44;1444355;96;21666;-86
2022/11/09 16:20:52;;;;;;;305.95;140.25;;;;;;;7.80;77.52;94890.20;1446002;97;22253;-87
2022/11/09 16:23:37;;;;;;;308.15;145.57;;;;;;;7.78;77.70;94897.48;1472193;96;21120;-85
2022/11/09 16:26:22;;;;;;;232.18;122.70;;;;;;;7.73;77.96;94895.84;1489126;93;21069;-86
2022/11/09 16:29:07;;;;;;;270.33;84.80;;;;;;;7.63;77.96;94903.68;1538910;91;21050;-89
2022/11/09 16:31:53;;;;;;;275.55;100.15;;;;;;;7.51;78.28;94906.47;1544609;92;21195;-86
2022/11/09 16:34:38;;;;;;;353.02;135.37;;;;;;;7.37;78.53;94899.92;1558434;91;21057;-85
2022/11/09 16:37:24;;;;;;;310.65;130.25;;;;;;;7.23;79.08;94898.86;1613362;86;21102;-85
2022/11/09 16:40:12;;;;;;;333.35;134.25;;;;;;;7.13;79.42;94898.47;1609328;88;21054;-86
2022/11/09 16:42:58;;;;;;;289.32;127.00;;;;;;;7.03;79.67;94898.68;1670963;84;21460;-86
2022/11/09 16:45:47;;;;;;;308.87;148.38;;;;;;;6.95;79.87;94897.28;1691942;84;21104;-86
2022/11/09 16:48:34;;;;;;;308.52;150.75;;;;;;;6.88;80.51;94891.17;1657416;84;21053;-87
2022/11/09 16:51:20;;;;;;;317.48;158.25;;;;;;;6.86;81.04;94893.56;1689756;84;20913;-86
2022/11/09 16:54:06;;;;;;;411.05;149.27;;;;;;;6.88;81.45;94891.17;1695294;84;21041;-86
2022/11/09 16:56:53;;;;;;;447.15;186.50;;;;;;;6.90;81.14;94902.47;1687742;84;20980;-86
2022/11/09 16:59:39;;;;;;;445.20;203.58;;;;;;;6.79;80.94;94896.41;1690338;84;21211;-86
2022/11/09 17:02:25;;;;;;;380.60;168.13;;;;;;;6.69;81.29;94897.39;1690532;84;20966;-89
2022/11/09 17:05:11;;;;;;;386.77;179.95;;;;;;;6.63;81.63;94899.83;1689431;84;20961;-89
2022/11/09 17:07:57;;;;;;;396.18;195.07;;;;;;;6.61;81.74;94894.59;1676190;84;21020;-88
2022/11/09 17:10:44;;;;;;;521.35;300.05;;;;;;;6.52;81.42;94905.31;1690626;84;21013;-87
2022/11/09 17:13:31;;;;;;;450.55;235.63;;;;;;;6.42;81.90;94906.25;1690163;84;21145;-87
2022/11/09 17:16:19;;;;;;;404.57;170.07;;;;;;;6.44;82.27;94916.17;1685280;84;20986;-86
2022/11/09 17:19:05;;;;;;;394.77;163.72;;;;;;;6.44;82.38;94913.44;1687425;84;20975;-88
2022/11/09 17:21:50;;;;;;;353.83;160.82;;;;;;;6.41;82.55;94915.64;1689394;84;20965;-87
2022/11/09 17:24:39;;;;;;;399.90;162.32;;;;;;;6.39;82.40;94920.75;1692740;84;21084;-88
2022/11/09 17:27:24;;;;;;;418.48;195.40;;;;;;;6.34;82.04;94917.14;1690328;84;21181;-88
2022/11/09 17:30:10;;;;;;;370.80;164.37;;;;;;;6.23;82.08;94916.53;1689910;84;20949;-88
2022/11/09 17:32:56;;;;;;;349.15;147.00;;;;;;;6.13;82.10;94918.84;1692450;84;20964;-85
2022/11/09 17:35:41;;;;;;;388.55;165.37;;;;;;;6.07;82.38;94917.17;1692498;84;21138;-88
2022/11/09 17:38:28;;;;;;;417.77;190.65;;;;;;;6.02;82.54;94912.19;1689369;84;21005;-86
2022/11/09 17:41:16;;;;;;;522.70;229.23;;;;;;;5.95;83.07;94919.72;1689576;84;21224;-86
2022/11/09 17:44:01;;;;;;;442.33;166.45;;;;;;;5.94;83.07;94920.91;1666828;84;20973;-86
2022/11/09 17:46:47;;;;;;;420.73;170.30;;;;;;;5.79;82.74;94925.02;1690045;84;20997;-86
2022/11/09 17:49:34;;;;;;;369.80;130.75;;;;;;;5.62;83.10;94923.28;1683222;84;20954;-86
2022/11/09 17:52:20;;;;;;;352.80;135.07;;;;;;;5.51;83.44;94920.70;1691808;84;21020;-87
2022/11/09 17:55:08;;;;;;;405.22;159.27;;;;;;;5.49;83.91;94920.34;1689004;84;21093;-87
2022/11/09 17:57:55;;;;;;;406.05;172.15;;;;;;;5.52;84.15;94929.64;1666934;84;21084;-87
2022/11/09 18:00:41;;;;;;;408.57;176.87;;;;;;;5.53;84.27;94928.45;1687947;84;21009;-88
2022/11/09 18:03:28;;;;;;;415.52;179.00;;;;;;;5.51;84.33;94929.46;1687782;84;21020;-90
2022/11/09 18:06:17;;;;;;;418.40;187.90;;;;;;;5.51;84.37;94930.25;1693539;84;21453;-86
2022/11/09 18:09:03;;;;;;;561.52;231.57;;;;;;;5.47;84.54;94928.73;1687402;84;21316;-86
2022/11/09 18:11:50;;;;;;;566.62;254.90;;;;;;;5.45;84.21;94930.50;1689159;84;20965;-87
2022/11/09 18:14:35;;;;;;;603.67;270.02;;;;;;;5.38;84.02;94928.48;1689660;84;20973;-87
2022/11/09 18:17:22;;;;;;;624.52;277.02;;;;;;;5.33;84.27;94927.55;1691841;84;20957;-85
2022/11/09 18:20:08;;;;;;;512.02;231.15;;;;;;;5.28;84.51;94933.47;1691790;84;21497;-87
2022/11/09 18:22:53;;;;;;;543.10;236.55;;;;;;;5.28;84.69;94933.47;1691380;84;21194;-88
2022/11/09 18:25:39;;;;;;;681.13;293.55;;;;;;;5.24;84.76;94932.14;1674475;84;21536;-88
2022/11/09 18:28:26;;;;;;;439.97;201.27;;;;;;;5.22;84.52;94928.30;1692764;84;20954;-87
2022/11/09 18:31:12;;;;;;;419.50;190.90;;;;;;;5.21;84.44;94928.11;1687949;84;21208;-87
2022/11/09 18:34:00;;;;;;;499.60;215.97;;;;;;;5.14;84.44;94932.27;1672244;84;21413;-87
2022/11/09 18:36:47;;;;;;;588.72;257.75;;;;;;;5.08;84.37;94935.27;1687904;84;21136;-86
2022/11/09 18:39:32;;;;;;;552.20;248.68;;;;;;;5.04;84.63;94945.45;1671343;84;21094;-86
2022/11/09 18:42:19;;;;;;;579.72;230.37;;;;;;;5.04;84.63;94941.36;1685016;84;20933;-87
2022/11/09 18:45:05;;;;;;;589.63;246.07;;;;;;;4.98;84.22;94942.96;1694754;84;21037;-89
2022/11/09 18:47:51;;;;;;;613.90;258.30;;;;;;;4.91;84.61;94940.33;1686287;84;21029;-88
2022/11/09 18:50:37;;;;;;;618.33;263.80;;;;;;;4.94;85.10;94943.59;1687370;84;21215;-89
2022/11/09 18:53:31;;;;;;;586.58;257.20;;;;;;;4.88;84.53;94941.72;1659158;86;21060;-86
2022/11/09 18:56:21;;;;;;;604.45;261.23;;;;;;;4.76;84.53;94949.06;1658367;86;21083;-88
2022/11/09 18:59:10;;;;;;;551.00;233.13;;;;;;;4.68;84.71;94951.09;1668115;84;21088;-87
2022/11/09 19:01:56;;;;;;;513.37;210.55;;;;;;;4.65;84.91;94948.39;1673995;84;21470;-87
2022/11/09 19:04:44;;;;;;;587.42;241.78;;;;;;;4.64;85.00;94950.93;1684092;85;21544;-88
2022/11/09 19:07:30;;;;;;;500.85;232.80;;;;;;;4.59;85.01;94952.12;1688196;84;21026;-88
2022/11/09 19:10:16;;;;;;;570.15;260.30;;;;;;;4.49;84.89;94953.02;1687233;84;20993;-87
2022/11/09 19:13:02;;;;;;;539.78;247.63;;;;;;;4.31;84.96;94946.17;1680308;84;21032;-87
2022/11/09 19:15:49;;;;;;;450.85;187.40;;;;;;;4.23;85.40;94950.90;1673415;84;21004;-87
2022/11/09 19:18:37;;;;;;;397.42;169.60;;;;;;;4.15;85.51;94951.35;1693320;84;21012;-87
2022/11/09 19:21:32;;;;;;;427.28;188.30;;;;;;;4.08;85.76;94954.89;1691347;84;21008;-87
2022/11/09 19:24:20;;;;;;;453.20;209.32;;;;;;;4.04;86.14;94955.52;1676706;85;21041;-88
2022/11/09 19:27:06;;;;;;;464.52;219.75;;;;;;;4.05;86.48;94959.78;1649396;85;21517;-89
2022/11/09 19:29:51;;;;;;;428.18;207.72;;;;;;;4.07;86.70;94963.48;1666371;85;21036;-88
2022/11/09 19:32:37;;;;;;;430.10;201.73;;;;;;;4.09;86.72;94960.53;1646158;85;21165;-86
2022/11/09 19:35:23;;;;;;;441.02;193.32;;;;;;;4.10;86.54;94964.83;1637368;86;21005;-87
2022/11/09 19:38:09;;;;;;;425.68;195.85;;;;;;;4.11;86.58;94965.02;1636833;86;21092;-86
2022/11/09 19:40:54;;;;;;;436.75;197.60;;;;;;;4.17;86.57;94963.40;1633507;86;21604;-86
2022/11/09 19:43:41;;;;;;;433.02;193.78;;;;;;;4.23;86.43;94953.62;1638346;86;21012;-88
2022/11/09 19:46:32;;;;;;;385.17;179.68;;;;;;;4.27;86.11;94960.41;1640183;85;21177;-88
2022/11/09 19:49:20;;;;;;;368.95;177.47;;;;;;;4.28;86.41;94958.62;1628119;86;21212;-88
2022/11/09 19:52:05;;;;;;;361.95;158.68;;;;;;;4.42;86.50;94958.52;1611537;87;21148;-88
2022/11/09 19:54:50;;;;;;;375.60;170.15;;;;;;;4.43;85.69;94961.42;1606739;88;21133;-87
2022/11/09 19:57:36;;;;;;;393.25;180.25;;;;;;;4.40;85.23;94964.95;1593159;89;21108;-88
2022/11/09 20:00:21;;;;;;;397.85;184.35;;;;;;;4.37;85.62;94958.95;1609397;88;21416;-87
2022/11/09 20:03:06;;;;;;;344.48;164.93;;;;;;;4.46;85.66;94961.97;1566693;90;21120;-88
2022/11/09 20:05:55;;;;;;;417.05;203.05;;;;;;;4.57;85.61;94964.02;1573820;90;21066;-87
2022/11/09 20:08:40;;;;;;;313.70;149.40;;;;;;;4.53;84.75;94961.92;1615865;88;21043;-86
2022/11/09 20:14:30;;;;;;;277.60;116.47;;;;;;;4.25;83.85;94961.40;1597873;88;21125;-87
2022/11/09 20:17:15;;;;;;;262.10;111.92;;;;;;;4.12;84.05;94969.28;1608530;88;20997;-88
2022/11/09 20:20:00;;;;;;;269.45;119.82;;;;;;;4.03;84.12;94974.98;1624325;86;21028;-87
2022/11/09 20:22:48;;;;;;;246.85;110.65;;;;;;;3.97;84.49;94966.47;1668472;84;21094;-86